createdAt,value
2022-08-28T00:01:40.744Z,20.02
2022-08-28T00:05:12.767Z,19.97
2022-08-28T00:08:39.483Z,19.89
2022-08-28T00:12:18.263Z,19.86
2022-08-28T00:16:01.370Z,19.78
2022-08-28T00:19:30.229Z,19.76
2022-08-28T00:22:58.265Z,19.76
2022-08-28T00:26:39.235Z,19.74
2022-08-28T00:30:08.125Z,19.72
2022-08-28T00:33:39.297Z,19.70
2022-08-28T00:37:07.150Z,19.71
2022-08-28T00:40:37.145Z,19.69
2022-08-28T00:44:18.895Z,19.66
2022-08-28T00:47:46.399Z,19.61
2022-08-28T00:51:31.616Z,19.56
2022-08-28T00:55:02.164Z,19.49
2022-08-28T00:58:29.160Z,19.45
2022-08-28T01:01:58.187Z,19.40
2022-08-28T01:05:26.245Z,19.36
2022-08-28T01:08:54.790Z,19.28
2022-08-28T01:12:34.969Z,19.23
2022-08-28T01:16:20.189Z,19.21
2022-08-28T01:19:56.665Z,19.21
2022-08-28T01:23:33.858Z,19.24
2022-08-28T01:27:01.304Z,19.25
2022-08-28T01:30:32.161Z,19.27
2022-08-28T01:34:01.268Z,19.27
2022-08-28T01:37:28.431Z,19.26
2022-08-28T01:40:58.130Z,19.24
2022-08-28T01:44:27.349Z,19.19
2022-08-28T01:47:56.743Z,19.12
2022-08-28T01:51:24.810Z,19.07
2022-08-28T01:54:52.183Z,19.01
2022-08-28T01:58:24.729Z,18.96
2022-08-28T02:01:55.634Z,18.92
2022-08-28T02:05:23.383Z,18.87
2022-08-28T02:08:55.829Z,18.83
2022-08-28T02:12:22.572Z,18.78
2022-08-28T02:15:51.096Z,18.79
2022-08-28T02:19:17.961Z,18.81
2022-08-28T02:22:45.675Z,18.83
2022-08-28T02:26:14.058Z,18.85
2022-08-28T02:29:41.266Z,18.87
2022-08-28T02:33:11.139Z,18.87
2022-08-28T02:36:41.270Z,18.84
2022-08-28T02:40:11.067Z,18.82
2022-08-28T02:43:38.862Z,18.77
2022-08-28T02:47:06.420Z,18.72
2022-08-28T02:50:34.563Z,18.65
2022-08-28T02:54:02.652Z,18.56
2022-08-28T02:57:31.340Z,18.51
2022-08-28T03:00:59.193Z,18.48
2022-08-28T03:04:26.600Z,18.47
2022-08-28T03:07:54.800Z,18.49
2022-08-28T03:11:21.960Z,18.50
2022-08-28T03:14:49.008Z,18.51
2022-08-28T03:18:18.274Z,18.50
2022-08-28T03:21:46.028Z,18.50
2022-08-28T03:25:16.953Z,18.49
2022-08-28T03:28:51.729Z,18.48
2022-08-28T03:32:18.680Z,18.44
2022-08-28T03:35:46.144Z,18.42
2022-08-28T03:39:14.047Z,18.40
2022-08-28T03:42:41.308Z,18.39
2022-08-28T03:46:10.070Z,18.37
2022-08-28T03:49:41.068Z,18.34
2022-08-28T03:53:08.631Z,18.32
2022-08-28T03:56:35.694Z,18.30
2022-08-28T04:00:04.144Z,18.32
2022-08-28T04:03:41.489Z,18.34
2022-08-28T04:07:10.879Z,18.39
2022-08-28T04:10:38.040Z,18.42
2022-08-28T04:14:05.096Z,18.46
2022-08-28T04:17:34.485Z,18.51
2022-08-28T04:21:08.114Z,18.55
2022-08-28T04:24:35.032Z,18.60
2022-08-28T04:28:02.967Z,18.65
2022-08-28T04:31:31.923Z,18.70
2022-08-28T04:35:00.126Z,18.71
2022-08-28T04:38:26.944Z,18.72
2022-08-28T04:41:55.979Z,18.74
2022-08-28T04:45:23.612Z,18.76
2022-08-28T04:48:50.363Z,18.77
2022-08-28T04:52:17.519Z,18.82
2022-08-28T04:55:54.184Z,18.88
2022-08-28T04:59:22.882Z,18.96
2022-08-28T05:02:50.094Z,19.05
2022-08-28T05:06:18.537Z,19.10
2022-08-28T05:09:46.271Z,19.26
2022-08-28T05:13:16.744Z,19.37
2022-08-28T05:16:48.508Z,19.46
2022-08-28T05:20:19.356Z,19.54
2022-08-28T05:23:46.618Z,19.61
2022-08-28T05:27:14.116Z,19.67
2022-08-28T05:30:42.462Z,19.73
2022-08-28T05:34:10.700Z,19.80
2022-08-28T05:37:37.950Z,19.85
2022-08-28T05:41:05.347Z,19.91
2022-08-28T05:44:32.969Z,19.93
2022-08-28T05:48:00.073Z,19.96
2022-08-28T05:51:28.259Z,20.00
2022-08-28T05:54:55.105Z,20.05
2022-08-28T05:58:32.198Z,20.11
2022-08-28T06:02:04.490Z,20.19
2022-08-28T06:05:31.451Z,20.29
2022-08-28T06:09:01.714Z,20.39
2022-08-28T06:12:29.265Z,20.49
2022-08-28T06:15:58.182Z,20.60
2022-08-28T06:19:26.779Z,20.69
2022-08-28T06:22:54.585Z,20.80
2022-08-28T06:26:22.559Z,20.90
2022-08-28T06:29:50.150Z,20.98
2022-08-28T06:33:21.871Z,21.05
2022-08-28T06:36:53.632Z,21.13
2022-08-28T06:40:21.246Z,21.21
2022-08-28T06:43:48.693Z,21.28
2022-08-28T06:47:22.180Z,21.35
2022-08-28T06:50:52.520Z,21.44
2022-08-28T06:54:23.346Z,21.55
2022-08-28T06:57:50.540Z,21.65
2022-08-28T07:01:23.055Z,21.77
2022-08-28T07:04:51.917Z,21.89
2022-08-28T07:08:20.812Z,22.00
2022-08-28T07:11:49.605Z,22.12
2022-08-28T07:15:17.498Z,22.23
2022-08-28T07:18:45.331Z,22.34
2022-08-28T07:22:14.731Z,22.45
2022-08-28T07:25:43.865Z,22.56
2022-08-28T07:29:11.722Z,22.65
2022-08-28T07:32:38.827Z,22.71
2022-08-28T07:36:07.457Z,22.86
2022-08-28T07:39:40.240Z,22.94
2022-08-28T07:43:27.578Z,23.04
2022-08-28T07:46:58.615Z,23.16
2022-08-28T07:50:25.814Z,23.26
2022-08-28T07:53:53.649Z,23.36
2022-08-28T07:57:21.506Z,23.47
2022-08-28T08:00:51.037Z,23.57
2022-08-28T08:04:20.222Z,23.67
2022-08-28T08:07:47.597Z,23.76
2022-08-28T08:11:18.091Z,23.87
2022-08-28T08:14:45.949Z,23.96
2022-08-28T08:18:14.157Z,24.05
2022-08-28T08:21:41.637Z,24.14
2022-08-28T08:25:11.127Z,24.25
2022-08-28T08:28:39.135Z,24.36
2022-08-28T08:32:11.728Z,24.47
2022-08-28T08:35:40.120Z,24.59
2022-08-28T08:39:09.759Z,24.72
2022-08-28T08:42:40.872Z,24.85
2022-08-28T08:46:08.858Z,24.95
2022-08-28T08:49:39.486Z,25.06
2022-08-28T08:53:28.477Z,25.20
2022-08-28T08:56:58.392Z,25.35
2022-08-28T09:00:27.185Z,25.50
2022-08-28T09:04:02.458Z,25.64
2022-08-28T09:07:39.273Z,25.80
2022-08-28T09:11:34.692Z,25.96
2022-08-28T09:15:05.677Z,26.13
2022-08-28T09:18:38.449Z,26.28
2022-08-28T09:22:06.154Z,26.44
2022-08-28T09:25:59.725Z,26.60
2022-08-28T09:29:35.041Z,26.78
2022-08-28T09:33:04.539Z,26.94
2022-08-28T09:36:36.744Z,27.06
2022-08-28T09:40:26.771Z,27.23
2022-08-28T09:43:56.973Z,27.42
2022-08-28T09:47:57.839Z,27.61
2022-08-28T09:51:35.219Z,27.86
2022-08-28T09:55:02.778Z,28.12
2022-08-28T09:58:35.569Z,28.37
2022-08-28T10:02:24.840Z,28.55
2022-08-28T10:06:04.755Z,28.65
2022-08-28T10:09:46.822Z,28.80
2022-08-28T10:13:22.048Z,28.99
2022-08-28T10:17:01.295Z,29.16
2022-08-28T10:20:55.179Z,29.32
2022-08-28T10:24:44.946Z,29.34
2022-08-28T10:28:39.641Z,29.31
2022-08-28T10:32:19.026Z,29.29
2022-08-28T10:35:54.983Z,29.25
2022-08-28T10:39:37.737Z,29.20
2022-08-28T10:43:12.329Z,29.19
2022-08-28T10:46:50.664Z,29.18
2022-08-28T10:50:28.294Z,29.17
2022-08-28T10:54:01.100Z,29.22
2022-08-28T10:57:39.782Z,29.29
2022-08-28T11:01:25.603Z,29.49
2022-08-28T11:04:58.685Z,29.77
2022-08-28T11:08:39.667Z,29.98
2022-08-28T11:12:30.567Z,30.08
2022-08-28T11:15:58.497Z,30.09
2022-08-28T11:20:02.639Z,30.03
2022-08-28T11:23:46.500Z,30.06
2022-08-28T11:27:34.939Z,30.14
2022-08-28T11:31:35.399Z,30.23
2022-08-28T11:35:08.022Z,30.26
2022-08-28T11:39:04.203Z,30.24
2022-08-28T11:42:40.741Z,30.25
2022-08-28T11:46:25.571Z,30.39
2022-08-28T11:49:53.470Z,30.67
2022-08-28T11:53:41.019Z,30.83
2022-08-28T11:57:16.661Z,30.81
2022-08-28T12:00:58.110Z,30.70
2022-08-28T12:04:25.966Z,30.53
2022-08-28T12:07:54.681Z,30.46
2022-08-28T12:11:59.022Z,30.37
2022-08-28T12:15:46.103Z,30.23
2022-08-28T12:19:30.222Z,30.23
2022-08-28T12:23:03.243Z,30.27
2022-08-28T12:26:36.217Z,30.30
2022-08-28T12:30:05.364Z,30.26
2022-08-28T12:33:46.917Z,30.29
2022-08-28T12:37:39.643Z,30.35
2022-08-28T12:41:25.034Z,30.37
2022-08-28T12:44:52.459Z,30.38
2022-08-28T12:48:23.608Z,30.42
2022-08-28T12:51:51.138Z,30.37
2022-08-28T12:55:24.181Z,30.23
2022-08-28T12:58:54.253Z,30.10
2022-08-28T13:02:28.365Z,29.92
2022-08-28T13:06:03.753Z,29.74
2022-08-28T13:09:31.357Z,29.62
2022-08-28T13:13:05.571Z,29.53
2022-08-28T13:16:42.183Z,29.43
2022-08-28T13:20:24.840Z,29.35
2022-08-28T13:23:54.167Z,29.30
2022-08-28T13:27:26.000Z,29.26
2022-08-28T13:31:03.994Z,29.25
2022-08-28T13:34:33.163Z,29.26
2022-08-28T13:38:03.672Z,29.24
2022-08-28T13:41:31.175Z,29.21
2022-08-28T13:44:58.834Z,29.16
2022-08-28T13:48:28.685Z,29.06
2022-08-28T13:51:59.669Z,28.95
2022-08-28T13:55:28.262Z,28.88
2022-08-28T13:58:57.691Z,28.77
2022-08-28T14:02:42.868Z,28.73
2022-08-28T14:06:14.627Z,28.66
2022-08-28T14:09:42.578Z,28.60
2022-08-28T14:13:15.057Z,28.55
2022-08-28T14:16:45.222Z,28.52
2022-08-28T14:20:16.112Z,28.44
2022-08-28T14:23:45.340Z,28.37
2022-08-28T14:27:12.980Z,28.31
2022-08-28T14:30:50.303Z,28.25
2022-08-28T14:34:25.705Z,28.19
2022-08-28T14:37:58.188Z,28.14
2022-08-28T14:41:27.861Z,28.11
2022-08-28T14:44:55.811Z,28.06
2022-08-28T14:48:35.078Z,28.03
2022-08-28T14:52:14.509Z,28.03
2022-08-28T14:55:51.917Z,28.04
2022-08-28T14:59:54.655Z,28.00
2022-08-28T15:03:26.086Z,28.03
2022-08-28T15:07:07.395Z,28.04
2022-08-28T15:10:42.772Z,28.01
2022-08-28T15:14:16.559Z,27.95
2022-08-28T15:17:47.207Z,27.89
2022-08-28T15:21:21.100Z,27.88
2022-08-28T15:24:51.101Z,27.87
2022-08-28T15:28:24.703Z,27.85
2022-08-28T15:31:55.245Z,27.80
2022-08-28T15:35:58.652Z,27.74
2022-08-28T15:39:46.238Z,27.70
2022-08-28T15:43:21.269Z,27.67
2022-08-28T15:47:07.212Z,27.62
2022-08-28T15:50:38.491Z,27.53
2022-08-28T15:54:16.647Z,27.46
2022-08-28T15:57:45.679Z,27.37
2022-08-28T16:01:14.818Z,27.30
2022-08-28T16:04:42.243Z,27.22
2022-08-28T16:08:11.780Z,27.14
2022-08-28T16:11:39.055Z,27.04
2022-08-28T16:15:19.307Z,26.92
2022-08-28T16:19:03.784Z,26.79
2022-08-28T16:22:30.833Z,26.66
2022-08-28T16:26:16.298Z,26.50
2022-08-28T16:29:57.572Z,26.38
2022-08-28T16:33:26.279Z,26.24
2022-08-28T16:36:53.834Z,26.18
2022-08-28T16:40:21.985Z,26.08
2022-08-28T16:43:50.606Z,26.04
2022-08-28T16:47:21.784Z,25.92
2022-08-28T16:50:51.946Z,25.91
2022-08-28T16:54:23.991Z,25.85
2022-08-28T16:57:55.935Z,25.80
2022-08-28T17:01:26.765Z,25.75
2022-08-28T17:05:00.806Z,25.71
2022-08-28T17:08:37.024Z,25.67
2022-08-28T17:12:14.272Z,25.63
2022-08-28T17:15:41.835Z,25.56
2022-08-28T17:19:17.622Z,25.52
2022-08-28T17:22:47.088Z,25.46
2022-08-28T17:26:21.402Z,25.42
2022-08-28T17:29:53.548Z,25.40
2022-08-28T17:33:25.341Z,25.36
2022-08-28T17:36:53.852Z,25.31
2022-08-28T17:40:22.252Z,25.25
2022-08-28T17:43:55.122Z,25.18
2022-08-28T17:47:27.569Z,25.09
2022-08-28T17:51:19.797Z,24.97
2022-08-28T17:55:01.041Z,24.84
2022-08-28T17:58:33.463Z,24.61
2022-08-28T18:02:04.989Z,24.32
2022-08-28T18:05:33.509Z,24.02
2022-08-28T18:09:04.049Z,23.80
2022-08-28T18:12:31.863Z,23.59
2022-08-28T18:15:59.545Z,23.38
2022-08-28T18:19:29.957Z,23.12
2022-08-28T18:22:57.880Z,22.82
2022-08-28T18:26:29.315Z,22.60
2022-08-28T18:30:02.966Z,22.40
2022-08-28T18:33:33.979Z,22.28
2022-08-28T18:37:03.425Z,22.21
2022-08-28T18:40:32.318Z,22.09
2022-08-28T18:44:04.776Z,22.01
2022-08-28T18:47:34.398Z,21.90
2022-08-28T18:51:04.536Z,21.77
2022-08-28T18:54:33.168Z,21.67
2022-08-28T18:58:02.765Z,21.59
2022-08-28T19:01:35.066Z,21.51
2022-08-28T19:05:03.694Z,21.44
2022-08-28T19:08:38.192Z,21.39
2022-08-28T19:12:08.418Z,21.34
2022-08-28T19:15:38.648Z,21.31
2022-08-28T19:19:09.007Z,21.24
2022-08-28T19:22:39.225Z,21.27
2022-08-28T19:26:07.925Z,21.24
2022-08-28T19:29:39.499Z,21.24
2022-08-28T19:33:12.905Z,21.27
2022-08-28T19:36:45.592Z,21.31
2022-08-28T19:40:16.269Z,21.36
2022-08-28T19:43:44.848Z,21.39
2022-08-28T19:47:16.323Z,21.41
2022-08-28T19:50:44.629Z,21.40
2022-08-28T19:54:14.785Z,21.38
2022-08-28T19:57:45.455Z,21.36
2022-08-28T20:01:15.567Z,21.37
2022-08-28T20:04:43.431Z,21.37
2022-08-28T20:08:14.310Z,21.35
2022-08-28T20:11:49.501Z,21.37
2022-08-28T20:15:19.844Z,21.35
2022-08-28T20:18:53.798Z,21.34
2022-08-28T20:22:22.753Z,21.30
2022-08-28T20:26:17.734Z,21.19
2022-08-28T20:29:57.424Z,21.06
2022-08-28T20:33:26.109Z,20.98
2022-08-28T20:36:56.192Z,20.91
2022-08-28T20:40:36.477Z,20.79
2022-08-28T20:44:07.519Z,20.73
2022-08-28T20:47:38.780Z,20.69
2022-08-28T20:51:09.348Z,20.71
2022-08-28T20:54:39.096Z,20.74
2022-08-28T20:58:15.797Z,20.75
2022-08-28T21:01:45.606Z,20.77
2022-08-28T21:05:13.740Z,20.77
2022-08-28T21:08:45.435Z,20.81
2022-08-28T21:12:14.746Z,20.85
2022-08-28T21:15:42.934Z,20.86
2022-08-28T21:19:15.838Z,20.89
2022-08-28T21:22:47.323Z,20.88
2022-08-28T21:26:15.413Z,20.87
2022-08-28T21:29:42.556Z,20.88
2022-08-28T21:33:12.488Z,20.87
2022-08-28T21:36:49.991Z,20.89
2022-08-28T21:40:19.907Z,20.90
2022-08-28T21:43:48.147Z,20.92
2022-08-28T21:47:19.395Z,20.94
2022-08-28T21:50:47.183Z,20.95
2022-08-28T21:54:17.194Z,20.95
2022-08-28T21:57:44.860Z,20.96
2022-08-28T22:01:15.583Z,20.97
2022-08-28T22:04:48.606Z,20.96
2022-08-28T22:08:24.215Z,20.95
2022-08-28T22:11:52.212Z,20.92
2022-08-28T22:15:20.084Z,20.89
2022-08-28T22:18:47.515Z,20.87
2022-08-28T22:22:33.867Z,20.89
2022-08-28T22:26:06.508Z,20.89
2022-08-28T22:29:37.356Z,20.90
2022-08-28T22:33:06.999Z,20.93
2022-08-28T22:36:44.301Z,20.91
2022-08-28T22:40:17.351Z,20.86
2022-08-28T22:43:47.004Z,20.83
2022-08-28T22:47:20.952Z,20.80
2022-08-28T22:50:49.874Z,20.78
2022-08-28T22:54:18.820Z,20.76
2022-08-28T22:57:48.753Z,20.75
2022-08-28T23:01:19.728Z,20.73
2022-08-28T23:04:51.179Z,20.73
2022-08-28T23:08:19.832Z,20.73
2022-08-28T23:11:47.539Z,20.71
2022-08-28T23:15:17.959Z,20.70
2022-08-28T23:19:07.369Z,20.69
2022-08-28T23:22:35.121Z,20.66
2022-08-28T23:26:03.487Z,20.62
2022-08-28T23:29:31.331Z,20.58
2022-08-28T23:32:58.388Z,20.55
2022-08-28T23:36:26.052Z,20.52
2022-08-28T23:39:53.048Z,20.49
2022-08-28T23:43:22.315Z,20.47
2022-08-28T23:46:50.083Z,20.43
2022-08-28T23:50:20.728Z,20.40
2022-08-28T23:53:48.548Z,20.35
2022-08-28T23:57:18.846Z,20.32
